Newton, KS (67114)

6:10 PM CDT on October 25, 2014 (GMT -0500)
Newton City County | Change Station
CLOSE
Current Station
Airport
Location: Newton,
Elevation: 1532 ft
Nearby Weather Stations

Elev 1532 ft 38.06 °N, 97.27 °W | Updated 15 minutes ago

Clear
Clear
84 °F
Feels Like 83 °F
N
7
Wind Variable Wind from South

Today
High -- | Low -- °F
--% Chance of Precip.
Yesterday
High -- | Low -- °F
Precip. -- in
7:47 AM 6:38 PM
Waxing Crescent, 5% visible
Pressure 30.02 in
Visibility 10.0 miles
Clouds Clear
Heat Index 83 °F
Dew Point 55 °F
Humidity 37%
Rainfall 0.00 in
Snow Depth Not available.
UV 0 out of 12
Pollen 3.30 out of 12
Air Quality Not available.
Flu Activity No Activity
METAR KEWK 252255Z AUTO 18006KT 10SM CLR 29/13 A3002 RMK AO1

More Conditions Fewer Conditions

Pressure 30.02 in
Visibility 10.0 miles
Clouds Clear
Heat Index 83 °F
Dew Point 55 °F
Humidity 37%
Rainfall 0.00 in
Snow Depth Not available.
UV 0 out of 12
Pollen 3.30 out of 12
Air Quality Not available.
Flu Activity No Activity
METAR KEWK 252255Z AUTO 18006KT 10SM CLR 29/13 A3002 RMK AO1

More Conditions Fewer Conditions

10-Day Weather Forecast

Almanac

Astronomy

Oct. 25, 2014 Rise Set
Actual Time 7:47 AM CDT 6:38 PM CDT
Civil Twilight 7:21 AM CDT 7:05 PM CDT
Nautical Twilight 6:50 AM CDT 7:36 PM CDT
Astronomical Twilight 6:19 AM CDT 8:06 PM CDT
Moon 9:26 AM CDT 8:03 PM CDT
Length of Visible Light 11h 44m
Length of Day
10h 50m
Tomorrow will be 2m 15s shorter.
Waxing Crescent, 5% of the Moon is Illuminated
Today
Waxing Crescent
Oct 30
First Quarter
Nov 6
Full
Nov 14
Last Quarter
Nov 22
New

Today's Extremes

State Highs State Lows

Community

WunderPhotos

Upload Photos

1,765,024 photos uploaded!

Nearby

Snow Depth

Station Depth Elevation
No new snow has been reported.

Earthquake Activity

City Distance Mag. Time & Date
Mooreland, Oklahoma 139 miles 2.9 3:21 PM CDT
2014-10-25
Pawnee, Oklahoma 117 miles 2.6 7:24 PM CDT
2014-10-24
Mooreland, Oklahoma 146 miles 2.5 2:43 PM CDT
2014-10-24
Medford, Oklahoma 89 miles 2.6 12:44 PM CDT
2014-10-24
Minimum magnitude displayed is 2.5.

Coastal Water Temperatures

Place Temperature
No Stations Reporting

Nearby Weather Stations